sensor_id;sensor_type;location;lat;lon;timestamp;temperature;humidity
44431;DHT22;30135;47.866;-4.222;2023-03-05T00:01:20;7.30;74.80
44431;DHT22;30135;47.866;-4.222;2023-03-05T00:03:52;7.30;74.90
44431;DHT22;30135;47.866;-4.222;2023-03-05T00:06:21;7.30;74.90
44431;DHT22;30135;47.866;-4.222;2023-03-05T00:08:51;7.30;75.00
44431;DHT22;30135;47.866;-4.222;2023-03-05T00:11:18;7.30;75.00
44431;DHT22;30135;47.866;-4.222;2023-03-05T00:13:45;7.30;75.10
44431;DHT22;30135;47.866;-4.222;2023-03-05T00:16:13;7.30;75.20
44431;DHT22;30135;47.866;-4.222;2023-03-05T00:18:40;7.30;75.20
44431;DHT22;30135;47.866;-4.222;2023-03-05T00:21:23;7.30;75.20
44431;DHT22;30135;47.866;-4.222;2023-03-05T00:23:52;7.30;75.30
44431;DHT22;30135;47.866;-4.222;2023-03-05T00:26:21;7.30;75.30
44431;DHT22;30135;47.866;-4.222;2023-03-05T00:28:48;7.30;75.30
44431;DHT22;30135;47.866;-4.222;2023-03-05T00:31:20;7.30;75.30
44431;DHT22;30135;47.866;-4.222;2023-03-05T00:33:56;7.30;75.30
44431;DHT22;30135;47.866;-4.222;2023-03-05T00:36:27;7.30;75.30
44431;DHT22;30135;47.866;-4.222;2023-03-05T00:38:54;7.30;75.30
44431;DHT22;30135;47.866;-4.222;2023-03-05T00:41:20;7.30;75.30
44431;DHT22;30135;47.866;-4.222;2023-03-05T00:43:46;7.30;75.30
44431;DHT22;30135;47.866;-4.222;2023-03-05T00:46:12;7.30;75.30
44431;DHT22;30135;47.866;-4.222;2023-03-05T00:48:38;7.30;75.30
44431;DHT22;30135;47.866;-4.222;2023-03-05T00:51:04;7.30;75.30
44431;DHT22;30135;47.866;-4.222;2023-03-05T00:53:31;7.30;75.30
44431;DHT22;30135;47.866;-4.222;2023-03-05T00:55:57;7.40;75.40
44431;DHT22;30135;47.866;-4.222;2023-03-05T00:58:23;7.40;75.30
44431;DHT22;30135;47.866;-4.222;2023-03-05T01:00:49;7.40;75.20
44431;DHT22;30135;47.866;-4.222;2023-03-05T01:03:17;7.40;75.10
44431;DHT22;30135;47.866;-4.222;2023-03-05T01:05:43;7.40;75.10
44431;DHT22;30135;47.866;-4.222;2023-03-05T01:08:10;7.40;75.00
44431;DHT22;30135;47.866;-4.222;2023-03-05T01:10:36;7.40;74.90
44431;DHT22;30135;47.866;-4.222;2023-03-05T01:13:02;7.40;74.90
44431;DHT22;30135;47.866;-4.222;2023-03-05T01:15:28;7.40;74.80
44431;DHT22;30135;47.866;-4.222;2023-03-05T01:17:54;7.40;74.80
44431;DHT22;30135;47.866;-4.222;2023-03-05T01:20:21;7.40;74.70
44431;DHT22;30135;47.866;-4.222;2023-03-05T01:22:48;7.40;74.60
44431;DHT22;30135;47.866;-4.222;2023-03-05T01:25:15;7.40;74.50
44431;DHT22;30135;47.866;-4.222;2023-03-05T01:27:41;7.40;74.60
44431;DHT22;30135;47.866;-4.222;2023-03-05T01:30:09;7.40;74.60
44431;DHT22;30135;47.866;-4.222;2023-03-05T01:32:36;7.40;74.50
44431;DHT22;30135;47.866;-4.222;2023-03-05T01:35:03;7.40;74.60
44431;DHT22;30135;47.866;-4.222;2023-03-05T01:37:30;7.50;74.60
44431;DHT22;30135;47.866;-4.222;2023-03-05T01:39:56;7.40;74.40
44431;DHT22;30135;47.866;-4.222;2023-03-05T01:42:22;7.40;74.40
44431;DHT22;30135;47.866;-4.222;2023-03-05T01:45:17;7.40;74.40
44431;DHT22;30135;47.866;-4.222;2023-03-05T01:47:44;7.40;74.30
44431;DHT22;30135;47.866;-4.222;2023-03-05T01:50:14;7.40;74.30
44431;DHT22;30135;47.866;-4.222;2023-03-05T01:52:48;7.40;74.30
44431;DHT22;30135;47.866;-4.222;2023-03-05T01:55:22;7.40;74.20
44431;DHT22;30135;47.866;-4.222;2023-03-05T01:57:58;7.40;74.00
44431;DHT22;30135;47.866;-4.222;2023-03-05T02:00:42;7.40;73.90
44431;DHT22;30135;47.866;-4.222;2023-03-05T02:03:11;7.40;73.90
44431;DHT22;30135;47.866;-4.222;2023-03-05T02:05:39;7.40;73.90
44431;DHT22;30135;47.866;-4.222;2023-03-05T02:08:11;7.40;73.90
44431;DHT22;30135;47.866;-4.222;2023-03-05T02:10:41;7.40;74.00
44431;DHT22;30135;47.866;-4.222;2023-03-05T02:13:23;7.50;74.00
44431;DHT22;30135;47.866;-4.222;2023-03-05T02:15:53;7.40;73.90
44431;DHT22;30135;47.866;-4.222;2023-03-05T02:18:20;7.40;73.80
44431;DHT22;30135;47.866;-4.222;2023-03-05T02:23:15;7.40;73.90
44431;DHT22;30135;47.866;-4.222;2023-03-05T02:25:42;7.40;73.80
44431;DHT22;30135;47.866;-4.222;2023-03-05T02:28:19;7.40;73.50
44431;DHT22;30135;47.866;-4.222;2023-03-05T02:30:56;7.40;73.50
44431;DHT22;30135;47.866;-4.222;2023-03-05T02:33:22;7.30;73.30
44431;DHT22;30135;47.866;-4.222;2023-03-05T02:35:48;7.40;73.40
44431;DHT22;30135;47.866;-4.222;2023-03-05T02:38:16;7.40;73.40
44431;DHT22;30135;47.866;-4.222;2023-03-05T02:40:44;7.40;73.30
44431;DHT22;30135;47.866;-4.222;2023-03-05T02:43:10;7.40;73.30
44431;DHT22;30135;47.866;-4.222;2023-03-05T02:45:37;7.40;73.30
44431;DHT22;30135;47.866;-4.222;2023-03-05T02:48:04;7.40;73.20
44431;DHT22;30135;47.866;-4.222;2023-03-05T02:50:30;7.40;73.30
44431;DHT22;30135;47.866;-4.222;2023-03-05T02:52:56;7.40;73.20
44431;DHT22;30135;47.866;-4.222;2023-03-05T02:55:23;7.40;73.20
44431;DHT22;30135;47.866;-4.222;2023-03-05T02:57:49;7.40;73.10
44431;DHT22;30135;47.866;-4.222;2023-03-05T03:00:15;7.40;73.20
44431;DHT22;30135;47.866;-4.222;2023-03-05T03:02:41;7.40;73.20
44431;DHT22;30135;47.866;-4.222;2023-03-05T03:05:08;7.40;73.30
44431;DHT22;30135;47.866;-4.222;2023-03-05T03:07:34;7.40;73.30
44431;DHT22;30135;47.866;-4.222;2023-03-05T03:10:02;7.40;73.10
44431;DHT22;30135;47.866;-4.222;2023-03-05T03:12:29;7.40;73.20
44431;DHT22;30135;47.866;-4.222;2023-03-05T03:14:55;7.40;73.80
44431;DHT22;30135;47.866;-4.222;2023-03-05T03:17:21;7.40;73.00
44431;DHT22;30135;47.866;-4.222;2023-03-05T03:19:47;7.40;72.90
44431;DHT22;30135;47.866;-4.222;2023-03-05T03:22:14;7.30;72.60
44431;DHT22;30135;47.866;-4.222;2023-03-05T03:24:41;7.40;72.80
44431;DHT22;30135;47.866;-4.222;2023-03-05T03:27:07;7.40;72.80
44431;DHT22;30135;47.866;-4.222;2023-03-05T03:29:34;7.40;72.90
44431;DHT22;30135;47.866;-4.222;2023-03-05T03:32:01;7.40;72.80
44431;DHT22;30135;47.866;-4.222;2023-03-05T03:34:29;7.40;72.80
44431;DHT22;30135;47.866;-4.222;2023-03-05T03:36:55;7.40;72.90
44431;DHT22;30135;47.866;-4.222;2023-03-05T03:39:21;7.40;72.90
44431;DHT22;30135;47.866;-4.222;2023-03-05T03:41:49;7.40;73.00
44431;DHT22;30135;47.866;-4.222;2023-03-05T03:44:16;7.40;73.00
44431;DHT22;30135;47.866;-4.222;2023-03-05T03:46:44;7.40;73.10
44431;DHT22;30135;47.866;-4.222;2023-03-05T03:49:19;7.40;73.00
44431;DHT22;30135;47.866;-4.222;2023-03-05T03:51:48;7.40;73.00
44431;DHT22;30135;47.866;-4.222;2023-03-05T03:54:15;7.40;73.10
44431;DHT22;30135;47.866;-4.222;2023-03-05T03:56:42;7.40;73.00
44431;DHT22;30135;47.866;-4.222;2023-03-05T03:59:08;7.40;73.10
44431;DHT22;30135;47.866;-4.222;2023-03-05T04:01:34;7.40;73.10
44431;DHT22;30135;47.866;-4.222;2023-03-05T04:04:01;7.40;73.10
44431;DHT22;30135;47.866;-4.222;2023-03-05T04:06:28;7.40;73.10
44431;DHT22;30135;47.866;-4.222;2023-03-05T04:08:55;7.40;73.10
44431;DHT22;30135;47.866;-4.222;2023-03-05T04:11:21;7.40;73.10
44431;DHT22;30135;47.866;-4.222;2023-03-05T04:13:47;7.40;73.10
44431;DHT22;30135;47.866;-4.222;2023-03-05T04:16:15;7.40;73.30
44431;DHT22;30135;47.866;-4.222;2023-03-05T04:18:41;7.40;73.30
44431;DHT22;30135;47.866;-4.222;2023-03-05T04:21:08;7.40;73.30
44431;DHT22;30135;47.866;-4.222;2023-03-05T04:23:35;7.40;73.30
44431;DHT22;30135;47.866;-4.222;2023-03-05T04:26:01;7.40;73.30
44431;DHT22;30135;47.866;-4.222;2023-03-05T04:28:28;7.40;73.30
44431;DHT22;30135;47.866;-4.222;2023-03-05T04:30:54;7.40;73.20
44431;DHT22;30135;47.866;-4.222;2023-03-05T04:33:20;7.40;73.30
44431;DHT22;30135;47.866;-4.222;2023-03-05T04:35:46;7.40;73.30
44431;DHT22;30135;47.866;-4.222;2023-03-05T04:38:12;7.40;73.20
44431;DHT22;30135;47.866;-4.222;2023-03-05T04:40:38;7.40;73.20
44431;DHT22;30135;47.866;-4.222;2023-03-05T04:43:04;7.40;73.30
44431;DHT22;30135;47.866;-4.222;2023-03-05T04:45:31;7.40;73.40
44431;DHT22;30135;47.866;-4.222;2023-03-05T04:47:57;7.40;73.40
44431;DHT22;30135;47.866;-4.222;2023-03-05T04:50:24;7.40;73.30
44431;DHT22;30135;47.866;-4.222;2023-03-05T04:52:59;7.40;73.30
44431;DHT22;30135;47.866;-4.222;2023-03-05T04:55:26;7.40;73.30
44431;DHT22;30135;47.866;-4.222;2023-03-05T04:57:52;7.40;73.40
44431;DHT22;30135;47.866;-4.222;2023-03-05T05:00:25;7.40;73.40
44431;DHT22;30135;47.866;-4.222;2023-03-05T05:02:51;7.40;74.30
44431;DHT22;30135;47.866;-4.222;2023-03-05T05:05:20;7.40;73.50
44431;DHT22;30135;47.866;-4.222;2023-03-05T05:07:48;7.40;73.50
44431;DHT22;30135;47.866;-4.222;2023-03-05T05:10:15;7.40;73.50
44431;DHT22;30135;47.866;-4.222;2023-03-05T05:12:41;7.40;73.50
44431;DHT22;30135;47.866;-4.222;2023-03-05T05:15:08;7.40;73.40
44431;DHT22;30135;47.866;-4.222;2023-03-05T05:17:42;7.40;73.50
44431;DHT22;30135;47.866;-4.222;2023-03-05T05:20:10;7.40;73.40
44431;DHT22;30135;47.866;-4.222;2023-03-05T05:22:38;7.40;73.40
44431;DHT22;30135;47.866;-4.222;2023-03-05T05:25:05;7.40;73.30
44431;DHT22;30135;47.866;-4.222;2023-03-05T05:27:31;7.40;73.30
44431;DHT22;30135;47.866;-4.222;2023-03-05T05:29:57;7.40;73.30
44431;DHT22;30135;47.866;-4.222;2023-03-05T05:32:24;7.30;73.40
44431;DHT22;30135;47.866;-4.222;2023-03-05T05:34:57;7.30;73.30
44431;DHT22;30135;47.866;-4.222;2023-03-05T05:37:24;7.40;73.30
44431;DHT22;30135;47.866;-4.222;2023-03-05T05:39:51;7.40;73.40
44431;DHT22;30135;47.866;-4.222;2023-03-05T05:42:18;7.30;73.30
44431;DHT22;30135;47.866;-4.222;2023-03-05T05:44:45;7.30;73.30
44431;DHT22;30135;47.866;-4.222;2023-03-05T05:47:15;7.30;73.20
44431;DHT22;30135;47.866;-4.222;2023-03-05T05:49:41;7.30;73.10
44431;DHT22;30135;47.866;-4.222;2023-03-05T05:52:09;7.30;73.00
44431;DHT22;30135;47.866;-4.222;2023-03-05T05:54:35;7.30;73.20
44431;DHT22;30135;47.866;-4.222;2023-03-05T05:57:01;7.30;73.30
44431;DHT22;30135;47.866;-4.222;2023-03-05T05:59:27;7.30;73.20
44431;DHT22;30135;47.866;-4.222;2023-03-05T06:01:53;7.30;73.20
44431;DHT22;30135;47.866;-4.222;2023-03-05T06:04:19;7.30;73.20
44431;DHT22;30135;47.866;-4.222;2023-03-05T06:06:45;7.30;73.30
44431;DHT22;30135;47.866;-4.222;2023-03-05T06:09:11;7.30;73.20
44431;DHT22;30135;47.866;-4.222;2023-03-05T06:11:37;7.30;73.20
44431;DHT22;30135;47.866;-4.222;2023-03-05T06:14:03;7.30;73.20
44431;DHT22;30135;47.866;-4.222;2023-03-05T06:16:29;7.30;73.10
44431;DHT22;30135;47.866;-4.222;2023-03-05T06:18:55;7.30;73.00
44431;DHT22;30135;47.866;-4.222;2023-03-05T06:21:22;7.30;73.10
44431;DHT22;30135;47.866;-4.222;2023-03-05T06:23:48;7.30;73.30
44431;DHT22;30135;47.866;-4.222;2023-03-05T06:26:17;7.30;73.30
44431;DHT22;30135;47.866;-4.222;2023-03-05T06:28:45;7.30;73.30
44431;DHT22;30135;47.866;-4.222;2023-03-05T06:31:14;7.30;73.30
44431;DHT22;30135;47.866;-4.222;2023-03-05T06:33:41;7.30;73.30
44431;DHT22;30135;47.866;-4.222;2023-03-05T06:36:11;7.30;73.30
44431;DHT22;30135;47.866;-4.222;2023-03-05T06:38:39;7.30;73.30
44431;DHT22;30135;47.866;-4.222;2023-03-05T06:41:08;7.30;73.20
44431;DHT22;30135;47.866;-4.222;2023-03-05T06:43:40;7.30;73.20
44431;DHT22;30135;47.866;-4.222;2023-03-05T06:46:09;7.30;73.20
44431;DHT22;30135;47.866;-4.222;2023-03-05T06:48:37;7.30;73.40
44431;DHT22;30135;47.866;-4.222;2023-03-05T06:51:04;7.30;73.30
44431;DHT22;30135;47.866;-4.222;2023-03-05T06:53:30;7.30;73.30
44431;DHT22;30135;47.866;-4.222;2023-03-05T06:55:59;7.30;73.30
44431;DHT22;30135;47.866;-4.222;2023-03-05T06:58:25;7.30;73.30
44431;DHT22;30135;47.866;-4.222;2023-03-05T07:00:51;7.30;73.20
44431;DHT22;30135;47.866;-4.222;2023-03-05T07:03:17;7.20;73.10
44431;DHT22;30135;47.866;-4.222;2023-03-05T07:05:43;7.20;73.10
44431;DHT22;30135;47.866;-4.222;2023-03-05T07:08:09;7.30;73.20
44431;DHT22;30135;47.866;-4.222;2023-03-05T07:10:42;7.30;73.30
44431;DHT22;30135;47.866;-4.222;2023-03-05T07:13:09;7.30;73.20
44431;DHT22;30135;47.866;-4.222;2023-03-05T07:15:39;7.30;73.20
44431;DHT22;30135;47.866;-4.222;2023-03-05T07:18:05;7.30;73.20
44431;DHT22;30135;47.866;-4.222;2023-03-05T07:20:36;7.30;73.20
44431;DHT22;30135;47.866;-4.222;2023-03-05T07:23:02;7.30;73.10
44431;DHT22;30135;47.866;-4.222;2023-03-05T07:25:29;7.30;73.10
44431;DHT22;30135;47.866;-4.222;2023-03-05T07:27:56;7.30;73.10
44431;DHT22;30135;47.866;-4.222;2023-03-05T07:30:22;7.30;73.10
44431;DHT22;30135;47.866;-4.222;2023-03-05T07:32:49;7.20;73.20
44431;DHT22;30135;47.866;-4.222;2023-03-05T07:35:15;7.20;73.20
44431;DHT22;30135;47.866;-4.222;2023-03-05T07:37:41;7.30;73.30
44431;DHT22;30135;47.866;-4.222;2023-03-05T07:40:07;7.30;73.10
44431;DHT22;30135;47.866;-4.222;2023-03-05T07:42:34;7.20;73.10
44431;DHT22;30135;47.866;-4.222;2023-03-05T07:45:00;7.20;73.20
44431;DHT22;30135;47.866;-4.222;2023-03-05T07:47:26;7.20;73.20
44431;DHT22;30135;47.866;-4.222;2023-03-05T07:49:52;7.20;73.20
44431;DHT22;30135;47.866;-4.222;2023-03-05T07:52:18;7.20;73.10
44431;DHT22;30135;47.866;-4.222;2023-03-05T07:54:44;7.30;73.20
44431;DHT22;30135;47.866;-4.222;2023-03-05T07:57:11;7.20;73.20
44431;DHT22;30135;47.866;-4.222;2023-03-05T07:59:38;7.20;73.10
44431;DHT22;30135;47.866;-4.222;2023-03-05T08:02:05;7.20;73.80
44431;DHT22;30135;47.866;-4.222;2023-03-05T08:04:31;7.30;73.00
44431;DHT22;30135;47.866;-4.222;2023-03-05T08:06:58;7.30;72.90
44431;DHT22;30135;47.866;-4.222;2023-03-05T08:09:24;7.20;72.90
44431;DHT22;30135;47.866;-4.222;2023-03-05T08:11:50;7.20;73.00
44431;DHT22;30135;47.866;-4.222;2023-03-05T08:14:16;7.20;73.00
44431;DHT22;30135;47.866;-4.222;2023-03-05T08:16:42;7.20;73.00
44431;DHT22;30135;47.866;-4.222;2023-03-05T08:19:09;7.30;73.20
44431;DHT22;30135;47.866;-4.222;2023-03-05T08:21:36;7.30;73.30
44431;DHT22;30135;47.866;-4.222;2023-03-05T08:24:05;7.30;73.30
44431;DHT22;30135;47.866;-4.222;2023-03-05T08:26:33;7.30;73.20
44431;DHT22;30135;47.866;-4.222;2023-03-05T08:29:00;7.30;73.20
44431;DHT22;30135;47.866;-4.222;2023-03-05T08:31:28;7.30;73.30
44431;DHT22;30135;47.866;-4.222;2023-03-05T08:33:58;7.30;73.20
44431;DHT22;30135;47.866;-4.222;2023-03-05T08:36:25;7.30;73.10
44431;DHT22;30135;47.866;-4.222;2023-03-05T08:38:51;7.30;73.00
44431;DHT22;30135;47.866;-4.222;2023-03-05T08:41:18;7.30;73.10
44431;DHT22;30135;47.866;-4.222;2023-03-05T08:43:44;7.30;73.00
44431;DHT22;30135;47.866;-4.222;2023-03-05T08:46:25;7.30;73.10
44431;DHT22;30135;47.866;-4.222;2023-03-05T08:48:57;7.30;73.20
44431;DHT22;30135;47.866;-4.222;2023-03-05T08:51:24;7.30;73.20
44431;DHT22;30135;47.866;-4.222;2023-03-05T08:53:51;7.30;73.20
44431;DHT22;30135;47.866;-4.222;2023-03-05T08:56:18;7.30;73.10
44431;DHT22;30135;47.866;-4.222;2023-03-05T08:58:45;7.30;73.10
44431;DHT22;30135;47.866;-4.222;2023-03-05T09:01:15;7.40;73.10
44431;DHT22;30135;47.866;-4.222;2023-03-05T09:03:41;7.40;73.10
44431;DHT22;30135;47.866;-4.222;2023-03-05T09:06:09;7.40;73.10
44431;DHT22;30135;47.866;-4.222;2023-03-05T09:08:37;7.40;73.00
44431;DHT22;30135;47.866;-4.222;2023-03-05T09:11:05;7.40;73.00
44431;DHT22;30135;47.866;-4.222;2023-03-05T09:13:33;7.40;73.00
44431;DHT22;30135;47.866;-4.222;2023-03-05T09:16:02;7.40;73.10
44431;DHT22;30135;47.866;-4.222;2023-03-05T09:18:31;7.40;73.10
44431;DHT22;30135;47.866;-4.222;2023-03-05T09:20:58;7.40;73.10
44431;DHT22;30135;47.866;-4.222;2023-03-05T09:23:29;7.40;73.10
44431;DHT22;30135;47.866;-4.222;2023-03-05T09:25:55;7.40;73.10
44431;DHT22;30135;47.866;-4.222;2023-03-05T09:28:21;7.40;73.00
44431;DHT22;30135;47.866;-4.222;2023-03-05T09:30:47;7.40;73.00
44431;DHT22;30135;47.866;-4.222;2023-03-05T09:33:13;7.40;73.00
44431;DHT22;30135;47.866;-4.222;2023-03-05T09:35:39;7.40;72.90
44431;DHT22;30135;47.866;-4.222;2023-03-05T09:38:05;7.40;72.90
44431;DHT22;30135;47.866;-4.222;2023-03-05T09:40:51;7.50;72.90
44431;DHT22;30135;47.866;-4.222;2023-03-05T09:52:22;7.50;72.80
44431;DHT22;30135;47.866;-4.222;2023-03-05T09:58:34;7.40;72.60
44431;DHT22;30135;47.866;-4.222;2023-03-05T10:01:20;7.40;72.60
44431;DHT22;30135;47.866;-4.222;2023-03-05T10:04:15;7.40;72.70
44431;DHT22;30135;47.866;-4.222;2023-03-05T10:06:55;7.40;72.50
44431;DHT22;30135;47.866;-4.222;2023-03-05T10:09:45;7.40;72.60
44431;DHT22;30135;47.866;-4.222;2023-03-05T10:15:20;7.40;72.50
44431;DHT22;30135;47.866;-4.222;2023-03-05T10:21:25;7.50;72.50
44431;DHT22;30135;47.866;-4.222;2023-03-05T10:38:33;7.50;72.20
44431;DHT22;30135;47.866;-4.222;2023-03-05T10:45:04;7.50;71.80
44431;DHT22;30135;47.866;-4.222;2023-03-05T10:50:51;7.50;72.00
44431;DHT22;30135;47.866;-4.222;2023-03-05T10:55:55;7.60;73.00
44431;DHT22;30135;47.866;-4.222;2023-03-05T10:58:27;7.60;72.20
44431;DHT22;30135;47.866;-4.222;2023-03-05T11:06:43;7.60;71.80
44431;DHT22;30135;47.866;-4.222;2023-03-05T11:09:19;7.70;72.00
44431;DHT22;30135;47.866;-4.222;2023-03-05T11:14:40;7.70;72.00
44431;DHT22;30135;47.866;-4.222;2023-03-05T11:23:18;7.70;71.70
44431;DHT22;30135;47.866;-4.222;2023-03-05T11:26:01;7.70;71.60
44431;DHT22;30135;47.866;-4.222;2023-03-05T11:28:34;7.70;71.60
44431;DHT22;30135;47.866;-4.222;2023-03-05T11:33:56;7.80;71.70
44431;DHT22;30135;47.866;-4.222;2023-03-05T11:36:32;7.80;71.70
44431;DHT22;30135;47.866;-4.222;2023-03-05T11:39:24;7.80;71.70
44431;DHT22;30135;47.866;-4.222;2023-03-05T11:44:53;7.80;71.50
44431;DHT22;30135;47.866;-4.222;2023-03-05T11:47:27;7.80;71.30
44431;DHT22;30135;47.866;-4.222;2023-03-05T11:58:26;7.90;71.40
44431;DHT22;30135;47.866;-4.222;2023-03-05T12:00:58;7.80;71.30
44431;DHT22;30135;47.866;-4.222;2023-03-05T12:03:31;7.90;71.30
44431;DHT22;30135;47.866;-4.222;2023-03-05T12:06:44;7.90;71.30
44431;DHT22;30135;47.866;-4.222;2023-03-05T12:23:25;7.90;71.10
44431;DHT22;30135;47.866;-4.222;2023-03-05T12:25:56;7.90;70.90
44431;DHT22;30135;47.866;-4.222;2023-03-05T12:31:00;7.90;71.10
44431;DHT22;30135;47.866;-4.222;2023-03-05T12:33:37;7.90;71.10
44431;DHT22;30135;47.866;-4.222;2023-03-05T12:38:53;8.00;71.00
44431;DHT22;30135;47.866;-4.222;2023-03-05T12:46:33;8.00;71.10
44431;DHT22;30135;47.866;-4.222;2023-03-05T12:49:27;8.00;70.90
44431;DHT22;30135;47.866;-4.222;2023-03-05T12:51:57;8.00;71.00
44431;DHT22;30135;47.866;-4.222;2023-03-05T12:54:33;8.00;70.90
44431;DHT22;30135;47.866;-4.222;2023-03-05T12:57:03;8.00;70.90
44431;DHT22;30135;47.866;-4.222;2023-03-05T12:59:47;8.00;70.70
44431;DHT22;30135;47.866;-4.222;2023-03-05T13:02:49;8.00;70.90
44431;DHT22;30135;47.866;-4.222;2023-03-05T13:05:35;8.00;71.10
44431;DHT22;30135;47.866;-4.222;2023-03-05T13:08:25;8.00;70.80
44431;DHT22;30135;47.866;-4.222;2023-03-05T13:11:03;8.00;71.00
44431;DHT22;30135;47.866;-4.222;2023-03-05T13:13:36;8.10;70.90
44431;DHT22;30135;47.866;-4.222;2023-03-05T13:16:04;8.00;70.80
44431;DHT22;30135;47.866;-4.222;2023-03-05T13:18:31;8.10;70.90
44431;DHT22;30135;47.866;-4.222;2023-03-05T13:21:03;8.10;70.90
44431;DHT22;30135;47.866;-4.222;2023-03-05T13:23:32;8.10;70.90
44431;DHT22;30135;47.866;-4.222;2023-03-05T13:28:37;8.20;71.10
44431;DHT22;30135;47.866;-4.222;2023-03-05T13:31:18;8.20;70.90
44431;DHT22;30135;47.866;-4.222;2023-03-05T13:33:56;8.20;70.90
44431;DHT22;30135;47.866;-4.222;2023-03-05T13:36:25;8.20;70.90
44431;DHT22;30135;47.866;-4.222;2023-03-05T13:38:52;8.20;70.90
44431;DHT22;30135;47.866;-4.222;2023-03-05T13:41:27;8.20;70.80
44431;DHT22;30135;47.866;-4.222;2023-03-05T13:43:57;8.20;70.60
44431;DHT22;30135;47.866;-4.222;2023-03-05T13:46:29;8.30;70.60
44431;DHT22;30135;47.866;-4.222;2023-03-05T13:49:24;8.30;70.80
44431;DHT22;30135;47.866;-4.222;2023-03-05T13:51:53;8.30;70.60
44431;DHT22;30135;47.866;-4.222;2023-03-05T13:54:22;8.30;70.30
44431;DHT22;30135;47.866;-4.222;2023-03-05T13:57:00;8.40;70.50
44431;DHT22;30135;47.866;-4.222;2023-03-05T13:59:30;8.40;70.30
44431;DHT22;30135;47.866;-4.222;2023-03-05T14:02:00;8.40;70.00
44431;DHT22;30135;47.866;-4.222;2023-03-05T14:04:35;8.40;70.00
44431;DHT22;30135;47.866;-4.222;2023-03-05T14:09:57;8.50;69.50
44431;DHT22;30135;47.866;-4.222;2023-03-05T14:12:35;8.50;69.70
44431;DHT22;30135;47.866;-4.222;2023-03-05T14:15:27;8.50;69.70
44431;DHT22;30135;47.866;-4.222;2023-03-05T14:18:26;8.50;69.60
44431;DHT22;30135;47.866;-4.222;2023-03-05T14:21:09;8.60;69.80
44431;DHT22;30135;47.866;-4.222;2023-03-05T14:23:38;8.60;69.70
44431;DHT22;30135;47.866;-4.222;2023-03-05T14:26:26;8.60;69.50
44431;DHT22;30135;47.866;-4.222;2023-03-05T14:28:59;8.60;69.50
44431;DHT22;30135;47.866;-4.222;2023-03-05T14:31:28;8.60;69.80
44431;DHT22;30135;47.866;-4.222;2023-03-05T14:34:04;8.60;69.60
44431;DHT22;30135;47.866;-4.222;2023-03-05T14:36:31;8.60;69.90
44431;DHT22;30135;47.866;-4.222;2023-03-05T14:38:58;8.70;69.90
44431;DHT22;30135;47.866;-4.222;2023-03-05T14:41:40;8.70;69.70
44431;DHT22;30135;47.866;-4.222;2023-03-05T14:44:16;8.70;69.40
44431;DHT22;30135;47.866;-4.222;2023-03-05T14:46:47;8.70;69.50
44431;DHT22;30135;47.866;-4.222;2023-03-05T14:49:15;8.70;69.50
44431;DHT22;30135;47.866;-4.222;2023-03-05T14:51:44;8.70;69.60
44431;DHT22;30135;47.866;-4.222;2023-03-05T14:54:22;8.70;69.40
44431;DHT22;30135;47.866;-4.222;2023-03-05T14:56:49;8.70;69.30
44431;DHT22;30135;47.866;-4.222;2023-03-05T14:59:19;8.70;69.40
44431;DHT22;30135;47.866;-4.222;2023-03-05T15:01:47;8.70;69.30
44431;DHT22;30135;47.866;-4.222;2023-03-05T15:04:15;8.70;69.30
44431;DHT22;30135;47.866;-4.222;2023-03-05T15:06:44;8.80;69.40
44431;DHT22;30135;47.866;-4.222;2023-03-05T15:09:15;8.80;69.40
44431;DHT22;30135;47.866;-4.222;2023-03-05T15:11:44;8.80;69.30
44431;DHT22;30135;47.866;-4.222;2023-03-05T15:14:11;8.70;69.40
44431;DHT22;30135;47.866;-4.222;2023-03-05T15:16:40;8.80;69.40
44431;DHT22;30135;47.866;-4.222;2023-03-05T15:19:10;8.80;69.50
44431;DHT22;30135;47.866;-4.222;2023-03-05T15:21:37;8.80;69.50
44431;DHT22;30135;47.866;-4.222;2023-03-05T15:24:03;8.80;70.00
44431;DHT22;30135;47.866;-4.222;2023-03-05T15:26:29;8.80;69.80
44431;DHT22;30135;47.866;-4.222;2023-03-05T15:28:55;8.80;69.60
44431;DHT22;30135;47.866;-4.222;2023-03-05T15:31:21;8.80;69.40
44431;DHT22;30135;47.866;-4.222;2023-03-05T15:33:49;8.80;69.40
44431;DHT22;30135;47.866;-4.222;2023-03-05T15:36:15;8.80;69.40
44431;DHT22;30135;47.866;-4.222;2023-03-05T15:38:41;8.80;69.50
44431;DHT22;30135;47.866;-4.222;2023-03-05T15:41:07;8.80;69.60
44431;DHT22;30135;47.866;-4.222;2023-03-05T15:43:33;8.80;69.30
44431;DHT22;30135;47.866;-4.222;2023-03-05T15:46:03;8.80;70.20
44431;DHT22;30135;47.866;-4.222;2023-03-05T15:48:30;8.80;69.10
44431;DHT22;30135;47.866;-4.222;2023-03-05T15:50:56;8.70;69.20
44431;DHT22;30135;47.866;-4.222;2023-03-05T15:53:22;8.80;69.30
44431;DHT22;30135;47.866;-4.222;2023-03-05T15:55:48;8.80;69.30
44431;DHT22;30135;47.866;-4.222;2023-03-05T15:58:15;8.80;69.40
44431;DHT22;30135;47.866;-4.222;2023-03-05T16:00:42;8.80;69.50
44431;DHT22;30135;47.866;-4.222;2023-03-05T16:03:09;8.80;69.60
44431;DHT22;30135;47.866;-4.222;2023-03-05T16:05:35;8.80;69.60
44431;DHT22;30135;47.866;-4.222;2023-03-05T16:08:03;8.80;69.60
44431;DHT22;30135;47.866;-4.222;2023-03-05T16:10:29;8.80;69.20
44431;DHT22;30135;47.866;-4.222;2023-03-05T16:13:10;8.80;69.10
44431;DHT22;30135;47.866;-4.222;2023-03-05T16:15:39;8.80;69.30
44431;DHT22;30135;47.866;-4.222;2023-03-05T16:18:08;8.80;69.30
44431;DHT22;30135;47.866;-4.222;2023-03-05T16:20:36;8.80;69.60
44431;DHT22;30135;47.866;-4.222;2023-03-05T16:23:03;8.80;69.50
44431;DHT22;30135;47.866;-4.222;2023-03-05T16:25:30;8.80;69.80
44431;DHT22;30135;47.866;-4.222;2023-03-05T16:27:56;8.80;69.70
44431;DHT22;30135;47.866;-4.222;2023-03-05T16:30:22;8.80;69.80
44431;DHT22;30135;47.866;-4.222;2023-03-05T16:32:48;8.80;69.90
44431;DHT22;30135;47.866;-4.222;2023-03-05T16:35:20;8.80;70.20
44431;DHT22;30135;47.866;-4.222;2023-03-05T16:37:46;8.80;70.30
44431;DHT22;30135;47.866;-4.222;2023-03-05T16:40:12;8.80;70.20
44431;DHT22;30135;47.866;-4.222;2023-03-05T16:42:39;8.80;70.40
44431;DHT22;30135;47.866;-4.222;2023-03-05T16:45:06;8.80;70.60
44431;DHT22;30135;47.866;-4.222;2023-03-05T16:47:32;8.80;70.60
44431;DHT22;30135;47.866;-4.222;2023-03-05T16:49:58;8.80;70.60
44431;DHT22;30135;47.866;-4.222;2023-03-05T16:52:31;8.80;70.80
44431;DHT22;30135;47.866;-4.222;2023-03-05T16:54:57;8.80;71.00
44431;DHT22;30135;47.866;-4.222;2023-03-05T16:57:23;8.80;71.00
44431;DHT22;30135;47.866;-4.222;2023-03-05T16:59:51;8.80;71.10
44431;DHT22;30135;47.866;-4.222;2023-03-05T17:02:17;8.80;71.00
44431;DHT22;30135;47.866;-4.222;2023-03-05T17:04:43;8.70;71.20
44431;DHT22;30135;47.866;-4.222;2023-03-05T17:07:09;8.80;71.40
44431;DHT22;30135;47.866;-4.222;2023-03-05T17:09:36;8.80;71.50
44431;DHT22;30135;47.866;-4.222;2023-03-05T17:12:02;8.80;71.50
44431;DHT22;30135;47.866;-4.222;2023-03-05T17:14:28;8.80;71.50
44431;DHT22;30135;47.866;-4.222;2023-03-05T17:16:54;8.80;71.60
44431;DHT22;30135;47.866;-4.222;2023-03-05T17:19:20;8.70;71.60
44431;DHT22;30135;47.866;-4.222;2023-03-05T17:21:46;8.70;71.70
44431;DHT22;30135;47.866;-4.222;2023-03-05T17:24:15;8.70;71.70
44431;DHT22;30135;47.866;-4.222;2023-03-05T17:26:41;8.70;71.90
44431;DHT22;30135;47.866;-4.222;2023-03-05T17:29:07;8.70;71.90